DAAT

Aguenar – Hadj Bey Akhamok Airport

Tamanrasset, Algeria
METAR DAAT 101500Z 34005KT 290V020 CAVOK 20/M08 Q1023
Observed Flight Rules
Dec-10 @ 15:00 UTC (30 minutes ago) Visual Flight Rules
Wind Visibility Clouds
340° at 5 knots 10,000+ meters
  • Clear skies
Temperatures Readings
Current 20°C / 68°F
Dewpoint -8°C / 18°F
Humidity 14%
Altimeter 30.21" Hg
Pressure 1023 hPa
Elevation 1377
METAR DAAT 101500Z 34005KT 290V020 CAVOK 20/M08 Q1023
Observed Flight Rules
Dec-10 @ 15:00 UTC
(30 minutes ago)
VFR
Wind Visibility
340° at 5 knots 10,000+ meters
Clouds
  • Clear skies
Temperature Dewpoint
20°C / 68°F -8°C / 18°F
Humidity Altimeter Pressure
14% 30.21" Hg 1023 hPa